AAL328 KLAX-KDEN
Flight info
| Callsign | AAL328 |
|---|---|
| Flight time | 1h 49m |
| Altitude | 37000 |
| Route | ORCKA5 LAS J146 DICEE BUMMP SSKII3 |
| Aircraft | B77W/H-SDE1E2E3FGHIJ2J3J4J5M1RWXY/LB1D1 |
Departure
| Time | 2026-04-21 00:54 |
|---|---|
| Airport | Los Angeles International Airport (KLAX) |
Arrival
| Time | 2026-04-21 02:43 |
|---|---|
| Airport | Denver International Airport (KDEN) |
| Time | Latitude | Longitude | Altitude | Speed | Heading |
|---|---|---|---|---|---|
| 2026-04-20 23:56 | 33.94089 | -118.40931 | 100 ft | 0 kts | 262° |
| 2026-04-21 00:40 | 33.94090 | -118.40923 | 101 ft | 4 kts | 259° |
| 2026-04-21 00:40 | 33.94097 | -118.40892 | 98 ft | 4 kts | 240° |
| 2026-04-21 00:40 | 33.94114 | -118.40867 | 100 ft | 4 kts | 219° |
| 2026-04-21 00:41 | 33.94136 | -118.40851 | 100 ft | 4 kts | 197° |
| 2026-04-21 00:41 | 33.94161 | -118.40847 | 99 ft | 2 kts | 173° |
| 2026-04-21 00:41 | 33.94163 | -118.40847 | 99 ft | 0 kts | 173° |
| 2026-04-21 00:45 | 33.94162 | -118.40847 | 99 ft | 1 kts | 173° |
| 2026-04-21 00:45 | 33.94154 | -118.40846 | 99 ft | 2 kts | 173° |
| 2026-04-21 00:46 | 33.94134 | -118.40843 | 100 ft | 10 kts | 173° |
| 2026-04-21 00:46 | 33.94038 | -118.40828 | 102 ft | 14 kts | 173° |
| 2026-04-21 00:46 | 33.93947 | -118.40815 | 102 ft | 12 kts | 171° |
| 2026-04-21 00:46 | 33.93876 | -118.40766 | 104 ft | 11 kts | 143° |
| 2026-04-21 00:47 | 33.93821 | -118.40704 | 107 ft | 11 kts | 114° |
| 2026-04-21 00:47 | 33.93818 | -118.40594 | 107 ft | 17 kts | 84° |
| 2026-04-21 00:47 | 33.93832 | -118.40445 | 108 ft | 22 kts | 83° |
| 2026-04-21 00:47 | 33.93853 | -118.40250 | 109 ft | 21 kts | 83° |
| 2026-04-21 00:48 | 33.93871 | -118.40076 | 109 ft | 21 kts | 83° |
| 2026-04-21 00:48 | 33.93885 | -118.39921 | 109 ft | 18 kts | 84° |
| 2026-04-21 00:48 | 33.93903 | -118.39756 | 108 ft | 23 kts | 83° |
| 2026-04-21 00:48 | 33.93923 | -118.39568 | 108 ft | 23 kts | 83° |
| 2026-04-21 00:49 | 33.93935 | -118.39444 | 107 ft | 23 kts | 83° |
| 2026-04-21 00:49 | 33.93953 | -118.39281 | 108 ft | 20 kts | 83° |
| 2026-04-21 00:49 | 33.93968 | -118.39118 | 106 ft | 20 kts | 84° |
| 2026-04-21 00:49 | 33.93986 | -118.38956 | 107 ft | 20 kts | 82° |
| 2026-04-21 00:50 | 33.94002 | -118.38794 | 107 ft | 20 kts | 83° |
| 2026-04-21 00:50 | 33.94019 | -118.38632 | 108 ft | 20 kts | 83° |
| 2026-04-21 00:50 | 33.94035 | -118.38472 | 108 ft | 19 kts | 83° |
| 2026-04-21 00:50 | 33.94050 | -118.38321 | 108 ft | 17 kts | 83° |
| 2026-04-21 00:51 | 33.94062 | -118.38197 | 108 ft | 13 kts | 83° |
| 2026-04-21 00:51 | 33.94073 | -118.38099 | 108 ft | 10 kts | 82° |
| 2026-04-21 00:51 | 33.94077 | -118.38056 | 107 ft | 0 kts | 88° |
| 2026-04-21 00:53 | 33.94074 | -118.38038 | 108 ft | 8 kts | 109° |
| 2026-04-21 00:53 | 33.94029 | -118.37998 | 111 ft | 8 kts | 167° |
| 2026-04-21 00:53 | 33.93984 | -118.38033 | 111 ft | 9 kts | 251° |
| 2026-04-21 00:53 | 33.93975 | -118.38117 | 115 ft | 18 kts | 263° |
| 2026-04-21 00:54 | 33.93916 | -118.38704 | 113 ft | 132 kts | 263° |
| 2026-04-21 00:54 | 33.93766 | -118.40204 | 474 ft | 215 kts | 265° |
| 2026-04-21 00:54 | 33.93590 | -118.42075 | 2226 ft | 226 kts | 263° |
| 2026-04-21 00:54 | 33.93422 | -118.43918 | 4247 ft | 221 kts | 262° |
| 2026-04-21 00:55 | 33.93216 | -118.45854 | 4836 ft | 243 kts | 259° |
| 2026-04-21 00:55 | 33.92724 | -118.47880 | 5134 ft | 258 kts | 246° |
| 2026-04-21 00:55 | 33.92009 | -118.49887 | 6082 ft | 261 kts | 243° |
| 2026-04-21 00:55 | 33.91232 | -118.51872 | 7165 ft | 263 kts | 241° |
| 2026-04-21 00:56 | 33.90410 | -118.53849 | 8231 ft | 266 kts | 240° |
| 2026-04-21 00:56 | 33.89563 | -118.55863 | 9173 ft | 273 kts | 240° |
| 2026-04-21 00:56 | 33.88548 | -118.57797 | 10023 ft | 275 kts | 220° |
| 2026-04-21 00:56 | 33.86873 | -118.58940 | 10643 ft | 290 kts | 195° |
| 2026-04-21 00:57 | 33.84757 | -118.59123 | 10894 ft | 323 kts | 173° |
| 2026-04-21 00:57 | 33.82678 | -118.58377 | 11164 ft | 353 kts | 155° |
| 2026-04-21 00:57 | 33.80638 | -118.56627 | 11968 ft | 370 kts | 138° |
| 2026-04-21 00:57 | 33.79118 | -118.54077 | 12796 ft | 384 kts | 119° |
| 2026-04-21 00:58 | 33.78378 | -118.50949 | 13009 ft | 397 kts | 97° |
| 2026-04-21 00:58 | 33.78706 | -118.47634 | 13006 ft | 405 kts | 73° |
| 2026-04-21 00:58 | 33.80107 | -118.44692 | 13008 ft | 410 kts | 49° |
| 2026-04-21 00:58 | 33.82366 | -118.42617 | 13051 ft | 413 kts | 24° |
| 2026-04-21 00:59 | 33.85165 | -118.41859 | 13822 ft | 416 kts | 359° |
| 2026-04-21 00:59 | 33.88059 | -118.42029 | 14605 ft | 420 kts | 353° |
| 2026-04-21 00:59 | 33.90994 | -118.42241 | 15504 ft | 424 kts | 357° |
| 2026-04-21 00:59 | 33.93936 | -118.41717 | 16188 ft | 437 kts | 19° |
| 2026-04-21 01:00 | 33.96571 | -118.39877 | 16979 ft | 445 kts | 42° |
| 2026-04-21 01:00 | 33.97951 | -118.38045 | 17549 ft | 446 kts | 57° |
| 2026-04-21 01:00 | 33.98879 | -118.36022 | 18090 ft | 443 kts | 70° |
| 2026-04-21 01:00 | 33.99982 | -118.32564 | 18700 ft | 448 kts | 71° |
| 2026-04-21 01:01 | 34.01334 | -118.29107 | 19116 ft | 454 kts | 63° |
| 2026-04-21 01:01 | 34.03005 | -118.25839 | 19794 ft | 461 kts | 58° |
| 2026-04-21 01:01 | 34.04840 | -118.22657 | 20678 ft | 463 kts | 56° |
| 2026-04-21 01:01 | 34.06722 | -118.19482 | 21519 ft | 466 kts | 56° |
| 2026-04-21 01:02 | 34.08603 | -118.16261 | 22293 ft | 471 kts | 57° |
| 2026-04-21 01:02 | 34.10446 | -118.13030 | 23015 ft | 477 kts | 58° |
| 2026-04-21 01:02 | 34.12324 | -118.09698 | 23732 ft | 481 kts | 58° |
| 2026-04-21 01:02 | 34.14209 | -118.06344 | 24358 ft | 486 kts | 58° |
| 2026-04-21 01:03 | 34.16116 | -118.02955 | 25014 ft | 489 kts | 57° |
| 2026-04-21 01:03 | 34.18030 | -117.99554 | 25683 ft | 491 kts | 57° |
| 2026-04-21 01:03 | 34.19959 | -117.96125 | 26328 ft | 495 kts | 57° |
| 2026-04-21 01:03 | 34.21898 | -117.92674 | 26925 ft | 499 kts | 57° |
| 2026-04-21 01:04 | 34.23853 | -117.89193 | 27518 ft | 502 kts | 57° |
| 2026-04-21 01:04 | 34.25822 | -117.85681 | 28070 ft | 506 kts | 57° |
| 2026-04-21 01:04 | 34.27803 | -117.82145 | 28596 ft | 510 kts | 57° |
| 2026-04-21 01:04 | 34.29802 | -117.78574 | 29116 ft | 514 kts | 57° |
| 2026-04-21 01:05 | 34.31811 | -117.74977 | 29620 ft | 517 kts | 57° |
| 2026-04-21 01:05 | 34.33832 | -117.71360 | 30020 ft | 521 kts | 57° |
| 2026-04-21 01:05 | 34.35855 | -117.67756 | 30400 ft | 523 kts | 56° |
| 2026-04-21 01:05 | 34.37982 | -117.64116 | 30890 ft | 523 kts | 55° |
| 2026-04-21 01:06 | 34.40089 | -117.60606 | 31392 ft | 522 kts | 55° |
| 2026-04-21 01:06 | 34.42233 | -117.57069 | 31878 ft | 521 kts | 55° |
| 2026-04-21 01:06 | 34.44374 | -117.53532 | 32323 ft | 521 kts | 55° |
| 2026-04-21 01:06 | 34.46513 | -117.49978 | 32793 ft | 521 kts | 55° |
| 2026-04-21 01:07 | 34.48640 | -117.46422 | 33274 ft | 520 kts | 55° |
| 2026-04-21 01:07 | 34.50760 | -117.42860 | 33760 ft | 520 kts | 55° |
| 2026-04-21 01:07 | 34.52871 | -117.39305 | 34187 ft | 519 kts | 55° |
| 2026-04-21 01:07 | 34.54979 | -117.35746 | 34587 ft | 518 kts | 55° |
| 2026-04-21 01:08 | 34.57086 | -117.32188 | 34994 ft | 517 kts | 56° |
| 2026-04-21 01:08 | 34.59181 | -117.28647 | 35392 ft | 516 kts | 56° |
| 2026-04-21 01:08 | 34.61278 | -117.25101 | 35758 ft | 516 kts | 56° |
| 2026-04-21 01:08 | 34.63365 | -117.21566 | 36116 ft | 516 kts | 56° |
| 2026-04-21 01:09 | 34.65457 | -117.18022 | 36466 ft | 515 kts | 56° |
| 2026-04-21 01:09 | 34.67522 | -117.14520 | 36776 ft | 515 kts | 56° |
| 2026-04-21 01:09 | 34.69613 | -117.10971 | 36933 ft | 519 kts | 56° |
| 2026-04-21 01:09 | 34.71718 | -117.07393 | 36916 ft | 521 kts | 56° |
| 2026-04-21 01:10 | 34.75920 | -117.00244 | 36911 ft | 516 kts | 56° |
| 2026-04-21 01:10 | 34.80072 | -116.93165 | 36920 ft | 513 kts | 56° |
| 2026-04-21 01:11 | 34.84178 | -116.86147 | 36926 ft | 512 kts | 56° |
| 2026-04-21 01:11 | 34.88303 | -116.79084 | 36922 ft | 512 kts | 56° |
| 2026-04-21 01:12 | 34.92477 | -116.72096 | 36932 ft | 513 kts | 51° |
| 2026-04-21 01:12 | 34.97279 | -116.65621 | 36914 ft | 515 kts | 47° |
| 2026-04-21 01:13 | 35.02198 | -116.59271 | 36908 ft | 515 kts | 47° |
| 2026-04-21 01:13 | 35.07101 | -116.52875 | 36894 ft | 516 kts | 47° |
| 2026-04-21 01:14 | 35.11973 | -116.46445 | 36891 ft | 516 kts | 47° |
| 2026-04-21 01:14 | 35.16833 | -116.40000 | 36889 ft | 515 kts | 47° |
| 2026-04-21 01:15 | 35.21651 | -116.33601 | 36902 ft | 514 kts | 48° |
| 2026-04-21 01:15 | 35.26487 | -116.27170 | 36885 ft | 513 kts | 48° |
| 2026-04-21 01:16 | 35.31317 | -116.20736 | 36895 ft | 512 kts | 48° |
| 2026-04-21 01:16 | 35.36130 | -116.14313 | 36887 ft | 511 kts | 48° |
| 2026-04-21 01:17 | 35.40935 | -116.07887 | 36892 ft | 510 kts | 48° |
| 2026-04-21 01:17 | 35.45726 | -116.01467 | 36915 ft | 510 kts | 48° |
| 2026-04-21 01:18 | 35.50516 | -115.95037 | 36910 ft | 510 kts | 48° |
| 2026-04-21 01:18 | 35.55295 | -115.88609 | 36924 ft | 509 kts | 49° |
| 2026-04-21 01:19 | 35.60033 | -115.82224 | 36930 ft | 509 kts | 49° |
| 2026-04-21 01:19 | 35.64778 | -115.75811 | 36947 ft | 508 kts | 49° |
| 2026-04-21 01:20 | 35.69492 | -115.69345 | 36935 ft | 508 kts | 49° |
| 2026-04-21 01:20 | 35.74196 | -115.62861 | 36933 ft | 507 kts | 50° |
| 2026-04-21 01:21 | 35.78888 | -115.56390 | 36956 ft | 506 kts | 50° |
| 2026-04-21 01:21 | 35.82785 | -115.51013 | 36957 ft | 505 kts | 50° |
| 2026-04-21 01:22 | 35.86483 | -115.45902 | 36944 ft | 505 kts | 50° |
| 2026-04-21 01:22 | 35.91007 | -115.39637 | 36948 ft | 504 kts | 50° |
| 2026-04-21 01:23 | 35.95532 | -115.33360 | 36956 ft | 503 kts | 50° |
| 2026-04-21 01:23 | 36.00172 | -115.26910 | 36951 ft | 502 kts | 50° |
| 2026-04-21 01:24 | 36.04793 | -115.20436 | 36923 ft | 501 kts | 53° |
| 2026-04-21 01:24 | 36.08586 | -115.13344 | 36928 ft | 495 kts | 65° |
| 2026-04-21 01:25 | 36.11309 | -115.05563 | 36927 ft | 491 kts | 73° |
| 2026-04-21 01:25 | 36.13651 | -114.97622 | 36862 ft | 492 kts | 73° |
| 2026-04-21 01:26 | 36.16043 | -114.89673 | 36850 ft | 493 kts | 72° |
| 2026-04-21 01:26 | 36.18465 | -114.81733 | 36844 ft | 493 kts | 72° |
| 2026-04-21 01:27 | 36.20901 | -114.73790 | 36821 ft | 493 kts | 72° |
| 2026-04-21 01:27 | 36.23299 | -114.65984 | 36832 ft | 493 kts | 72° |
| 2026-04-21 01:28 | 36.25732 | -114.58023 | 36807 ft | 493 kts | 72° |
| 2026-04-21 01:28 | 36.28154 | -114.50074 | 36810 ft | 493 kts | 72° |
| 2026-04-21 01:29 | 36.30567 | -114.42133 | 36821 ft | 492 kts | 72° |
| 2026-04-21 01:29 | 36.32972 | -114.34193 | 36819 ft | 491 kts | 72° |
| 2026-04-21 01:30 | 36.35370 | -114.26256 | 36826 ft | 491 kts | 72° |
| 2026-04-21 01:30 | 36.37760 | -114.18319 | 36830 ft | 491 kts | 72° |
| 2026-04-21 01:31 | 36.40145 | -114.10383 | 36836 ft | 490 kts | 72° |
| 2026-04-21 01:31 | 36.42520 | -114.02454 | 36852 ft | 490 kts | 72° |
| 2026-04-21 01:32 | 36.44875 | -113.94569 | 36860 ft | 490 kts | 72° |
| 2026-04-21 01:32 | 36.47237 | -113.86641 | 36868 ft | 489 kts | 72° |
| 2026-04-21 01:33 | 36.49593 | -113.78708 | 36876 ft | 489 kts | 72° |
| 2026-04-21 01:33 | 36.51942 | -113.70775 | 36887 ft | 488 kts | 72° |
| 2026-04-21 01:34 | 36.53888 | -113.64189 | 36892 ft | 488 kts | 72° |
| 2026-04-21 01:34 | 36.56225 | -113.56256 | 36895 ft | 488 kts | 72° |
| 2026-04-21 01:35 | 36.58554 | -113.48328 | 36907 ft | 487 kts | 72° |
| 2026-04-21 01:35 | 36.60874 | -113.40410 | 36904 ft | 487 kts | 72° |
| 2026-04-21 01:36 | 36.63188 | -113.32489 | 36911 ft | 486 kts | 72° |
| 2026-04-21 01:36 | 36.65476 | -113.24581 | 36912 ft | 485 kts | 72° |
| 2026-04-21 01:37 | 36.67756 | -113.16664 | 36950 ft | 485 kts | 72° |
| 2026-04-21 01:37 | 36.70013 | -113.08809 | 36977 ft | 485 kts | 72° |
| 2026-04-21 01:38 | 36.72284 | -113.00889 | 36998 ft | 485 kts | 72° |
| 2026-04-21 01:38 | 36.74548 | -112.92968 | 37009 ft | 485 kts | 72° |
| 2026-04-21 01:39 | 36.76795 | -112.85088 | 37004 ft | 484 kts | 72° |
| 2026-04-21 01:39 | 36.79049 | -112.77159 | 36988 ft | 484 kts | 72° |
| 2026-04-21 01:40 | 36.81292 | -112.69240 | 36967 ft | 484 kts | 72° |
| 2026-04-21 01:40 | 36.83531 | -112.61316 | 36946 ft | 484 kts | 72° |
| 2026-04-21 01:41 | 36.85762 | -112.53398 | 36944 ft | 483 kts | 72° |
| 2026-04-21 01:41 | 36.87985 | -112.45487 | 36951 ft | 482 kts | 71° |
| 2026-04-21 01:42 | 36.90187 | -112.37642 | 36960 ft | 481 kts | 71° |
| 2026-04-21 01:42 | 36.92401 | -112.29752 | 36957 ft | 480 kts | 71° |
| 2026-04-21 01:43 | 36.94608 | -112.21876 | 36965 ft | 480 kts | 71° |
| 2026-04-21 01:43 | 36.96810 | -112.13988 | 36960 ft | 480 kts | 71° |
| 2026-04-21 01:44 | 36.99003 | -112.06107 | 36948 ft | 480 kts | 71° |
| 2026-04-21 01:44 | 37.01188 | -111.98232 | 36941 ft | 479 kts | 71° |
| 2026-04-21 01:45 | 37.03362 | -111.90377 | 36932 ft | 479 kts | 71° |
| 2026-04-21 01:45 | 37.05538 | -111.82487 | 36930 ft | 479 kts | 71° |
| 2026-04-21 01:46 | 37.07709 | -111.74595 | 36938 ft | 479 kts | 71° |
| 2026-04-21 01:46 | 37.09872 | -111.66704 | 36947 ft | 478 kts | 71° |
| 2026-04-21 01:47 | 37.12014 | -111.58869 | 36956 ft | 478 kts | 71° |
| 2026-04-21 01:47 | 37.14166 | -111.50977 | 36956 ft | 478 kts | 71° |
| 2026-04-21 01:48 | 37.16309 | -111.43091 | 36947 ft | 477 kts | 70° |
| 2026-04-21 01:48 | 37.18445 | -111.35205 | 36938 ft | 477 kts | 70° |
| 2026-04-21 01:49 | 37.20575 | -111.27322 | 36917 ft | 477 kts | 70° |
| 2026-04-21 01:49 | 37.22937 | -111.19571 | 36895 ft | 475 kts | 63° |
| 2026-04-21 01:50 | 37.25896 | -111.12166 | 36899 ft | 474 kts | 62° |
| 2026-04-21 01:50 | 37.28876 | -111.04834 | 36904 ft | 474 kts | 62° |
| 2026-04-21 01:51 | 37.31841 | -110.97444 | 36897 ft | 473 kts | 62° |
| 2026-04-21 01:51 | 37.34783 | -110.90034 | 36895 ft | 473 kts | 63° |
| 2026-04-21 01:52 | 37.39175 | -110.78908 | 36893 ft | 473 kts | 63° |
| 2026-04-21 01:53 | 37.42093 | -110.71499 | 36900 ft | 473 kts | 63° |
| 2026-04-21 01:53 | 37.44988 | -110.64132 | 36898 ft | 473 kts | 63° |
| 2026-04-21 01:54 | 37.47899 | -110.56709 | 36906 ft | 472 kts | 63° |
| 2026-04-21 01:54 | 37.50802 | -110.49285 | 36911 ft | 472 kts | 63° |
| 2026-04-21 01:55 | 37.53701 | -110.41856 | 36921 ft | 472 kts | 62° |
| 2026-04-21 01:55 | 37.56577 | -110.34466 | 36926 ft | 471 kts | 63° |
| 2026-04-21 01:56 | 37.59457 | -110.27055 | 36940 ft | 470 kts | 62° |
| 2026-04-21 01:56 | 37.62325 | -110.19650 | 36946 ft | 470 kts | 62° |
| 2026-04-21 01:57 | 37.65190 | -110.12235 | 36960 ft | 469 kts | 62° |
| 2026-04-21 01:57 | 37.68047 | -110.04826 | 36968 ft | 469 kts | 62° |
| 2026-04-21 01:58 | 37.70895 | -109.97426 | 36988 ft | 468 kts | 62° |
| 2026-04-21 01:58 | 37.73733 | -109.90029 | 36990 ft | 468 kts | 62° |
| 2026-04-21 01:59 | 37.76571 | -109.82615 | 37019 ft | 468 kts | 62° |
| 2026-04-21 01:59 | 37.79403 | -109.75201 | 37018 ft | 468 kts | 62° |
| 2026-04-21 02:00 | 37.82212 | -109.67827 | 37021 ft | 468 kts | 62° |
| 2026-04-21 02:00 | 37.85029 | -109.60416 | 37030 ft | 467 kts | 62° |
| 2026-04-21 02:01 | 37.87845 | -109.52988 | 37033 ft | 467 kts | 62° |
| 2026-04-21 02:01 | 37.90654 | -109.45562 | 37022 ft | 467 kts | 62° |
| 2026-04-21 02:02 | 37.93455 | -109.38140 | 37002 ft | 467 kts | 62° |
| 2026-04-21 02:02 | 37.96255 | -109.30700 | 36995 ft | 467 kts | 63° |
| 2026-04-21 02:03 | 37.99024 | -109.23324 | 37009 ft | 466 kts | 63° |
| 2026-04-21 02:03 | 38.01806 | -109.15897 | 37006 ft | 465 kts | 63° |
| 2026-04-21 02:04 | 38.04578 | -109.08479 | 37014 ft | 465 kts | 63° |
| 2026-04-21 02:04 | 38.07345 | -109.01054 | 36991 ft | 465 kts | 62° |
| 2026-04-21 02:05 | 38.10108 | -108.93627 | 36982 ft | 465 kts | 62° |
| 2026-04-21 02:05 | 38.12961 | -108.86272 | 36981 ft | 464 kts | 61° |
| 2026-04-21 02:06 | 38.15872 | -108.78947 | 37005 ft | 464 kts | 61° |
| 2026-04-21 02:06 | 38.18767 | -108.71617 | 36977 ft | 464 kts | 61° |
| 2026-04-21 02:07 | 38.21626 | -108.64322 | 36985 ft | 464 kts | 61° |
| 2026-04-21 02:07 | 38.24497 | -108.56964 | 36987 ft | 464 kts | 61° |
| 2026-04-21 02:08 | 38.27364 | -108.49600 | 36993 ft | 464 kts | 61° |
| 2026-04-21 02:08 | 38.30221 | -108.42246 | 36994 ft | 463 kts | 61° |
| 2026-04-21 02:09 | 38.33076 | -108.34882 | 37001 ft | 463 kts | 61° |
| 2026-04-21 02:09 | 38.35923 | -108.27519 | 37013 ft | 463 kts | 61° |
| 2026-04-21 02:10 | 38.38770 | -108.20137 | 37051 ft | 463 kts | 61° |
| 2026-04-21 02:10 | 38.41594 | -108.12800 | 37072 ft | 464 kts | 61° |
| 2026-04-21 02:11 | 38.44436 | -108.05397 | 37108 ft | 464 kts | 61° |
| 2026-04-21 02:11 | 38.47266 | -107.97993 | 37128 ft | 464 kts | 62° |
| 2026-04-21 02:12 | 38.50074 | -107.90567 | 37130 ft | 464 kts | 62° |
| 2026-04-21 02:12 | 38.52868 | -107.83150 | 37132 ft | 464 kts | 62° |
| 2026-04-21 02:13 | 38.55647 | -107.75761 | 37110 ft | 463 kts | 62° |
| 2026-04-21 02:13 | 38.58432 | -107.68343 | 37083 ft | 463 kts | 62° |
| 2026-04-21 02:14 | 38.61214 | -107.60917 | 37069 ft | 463 kts | 62° |
| 2026-04-21 02:14 | 38.63993 | -107.53480 | 37043 ft | 464 kts | 62° |
| 2026-04-21 02:15 | 38.66779 | -107.46032 | 37039 ft | 464 kts | 61° |
| 2026-04-21 02:15 | 38.69598 | -107.38600 | 37046 ft | 464 kts | 61° |
| 2026-04-21 02:16 | 38.72421 | -107.31157 | 37062 ft | 465 kts | 61° |
| 2026-04-21 02:16 | 38.75234 | -107.23703 | 37080 ft | 465 kts | 61° |
| 2026-04-21 02:17 | 38.78042 | -107.16238 | 37102 ft | 464 kts | 61° |
| 2026-04-21 02:17 | 38.80825 | -107.08820 | 37093 ft | 464 kts | 61° |
| 2026-04-21 02:18 | 38.83612 | -107.01371 | 37108 ft | 464 kts | 61° |
| 2026-04-21 02:18 | 38.86401 | -106.93899 | 37107 ft | 464 kts | 62° |
| 2026-04-21 02:19 | 38.89186 | -106.86420 | 37107 ft | 464 kts | 62° |
| 2026-04-21 02:19 | 38.91971 | -106.78923 | 37114 ft | 465 kts | 62° |
| 2026-04-21 02:20 | 38.94751 | -106.71421 | 37122 ft | 465 kts | 62° |
| 2026-04-21 02:20 | 38.96144 | -106.67653 | 36608 ft | 469 kts | 62° |
| 2026-04-21 02:20 | 38.97517 | -106.63937 | 35981 ft | 469 kts | 62° |
| 2026-04-21 02:20 | 38.98913 | -106.60152 | 35198 ft | 470 kts | 62° |
| 2026-04-21 02:21 | 39.00315 | -106.56345 | 34495 ft | 471 kts | 62° |
| 2026-04-21 02:21 | 39.01706 | -106.52554 | 33937 ft | 467 kts | 62° |
| 2026-04-21 02:21 | 39.03067 | -106.48831 | 33356 ft | 464 kts | 62° |
| 2026-04-21 02:21 | 39.04432 | -106.45093 | 32815 ft | 460 kts | 62° |
| 2026-04-21 02:22 | 39.05787 | -106.41380 | 32290 ft | 457 kts | 62° |
| 2026-04-21 02:22 | 39.07135 | -106.37685 | 31765 ft | 454 kts | 62° |
| 2026-04-21 02:22 | 39.08466 | -106.34029 | 31248 ft | 451 kts | 62° |
| 2026-04-21 02:22 | 39.09797 | -106.30371 | 30735 ft | 449 kts | 62° |
| 2026-04-21 02:23 | 39.11115 | -106.26742 | 30177 ft | 447 kts | 62° |
| 2026-04-21 02:23 | 39.12425 | -106.23136 | 29575 ft | 444 kts | 63° |
| 2026-04-21 02:23 | 39.13292 | -106.20745 | 29187 ft | 443 kts | 63° |
| 2026-04-21 02:23 | 39.14589 | -106.17162 | 28623 ft | 440 kts | 63° |
| 2026-04-21 02:24 | 39.15877 | -106.13604 | 28064 ft | 437 kts | 63° |
| 2026-04-21 02:24 | 39.17158 | -106.10064 | 27490 ft | 434 kts | 63° |
| 2026-04-21 02:24 | 39.18433 | -106.06536 | 26934 ft | 432 kts | 63° |
| 2026-04-21 02:24 | 39.19698 | -106.03031 | 26373 ft | 430 kts | 63° |
| 2026-04-21 02:25 | 39.20956 | -105.99540 | 25826 ft | 428 kts | 63° |
| 2026-04-21 02:25 | 39.22208 | -105.96065 | 25277 ft | 427 kts | 63° |
| 2026-04-21 02:25 | 39.23458 | -105.92588 | 24729 ft | 425 kts | 64° |
| 2026-04-21 02:25 | 39.24699 | -105.89135 | 24164 ft | 425 kts | 64° |
| 2026-04-21 02:26 | 39.25926 | -105.85716 | 23605 ft | 424 kts | 64° |
| 2026-04-21 02:26 | 39.27166 | -105.82257 | 23002 ft | 423 kts | 64° |
| 2026-04-21 02:26 | 39.28396 | -105.78818 | 22448 ft | 421 kts | 64° |
| 2026-04-21 02:26 | 39.29621 | -105.75393 | 21924 ft | 419 kts | 65° |
| 2026-04-21 02:27 | 39.30835 | -105.71995 | 21408 ft | 416 kts | 65° |
| 2026-04-21 02:27 | 39.32041 | -105.68612 | 20898 ft | 414 kts | 65° |
| 2026-04-21 02:27 | 39.33247 | -105.65251 | 20388 ft | 412 kts | 65° |
| 2026-04-21 02:27 | 39.34466 | -105.61912 | 19882 ft | 410 kts | 65° |
| 2026-04-21 02:28 | 39.35683 | -105.58592 | 19374 ft | 408 kts | 65° |
| 2026-04-21 02:28 | 39.36895 | -105.55281 | 18874 ft | 407 kts | 65° |
| 2026-04-21 02:28 | 39.38096 | -105.51993 | 18555 ft | 399 kts | 65° |
| 2026-04-21 02:28 | 39.39261 | -105.48792 | 18355 ft | 389 kts | 65° |
| 2026-04-21 02:29 | 39.40400 | -105.45656 | 18121 ft | 381 kts | 65° |
| 2026-04-21 02:29 | 39.41446 | -105.42569 | 17910 ft | 368 kts | 72° |
| 2026-04-21 02:29 | 39.41813 | -105.39355 | 17612 ft | 353 kts | 91° |
| 2026-04-21 02:29 | 39.41777 | -105.36240 | 17142 ft | 342 kts | 91° |
| 2026-04-21 02:30 | 39.41765 | -105.33219 | 16740 ft | 332 kts | 90° |
| 2026-04-21 02:30 | 39.41765 | -105.30261 | 16365 ft | 331 kts | 90° |
| 2026-04-21 02:30 | 39.41772 | -105.27246 | 15983 ft | 338 kts | 90° |
| 2026-04-21 02:30 | 39.41783 | -105.24183 | 15630 ft | 345 kts | 90° |
| 2026-04-21 02:31 | 39.41796 | -105.21067 | 15407 ft | 345 kts | 90° |
| 2026-04-21 02:31 | 39.41809 | -105.18057 | 15141 ft | 331 kts | 90° |
| 2026-04-21 02:31 | 39.41822 | -105.15113 | 14539 ft | 324 kts | 90° |
| 2026-04-21 02:31 | 39.41834 | -105.12244 | 14098 ft | 315 kts | 90° |
| 2026-04-21 02:32 | 39.41846 | -105.09400 | 13737 ft | 315 kts | 90° |
| 2026-04-21 02:32 | 39.41857 | -105.06598 | 13552 ft | 307 kts | 90° |
| 2026-04-21 02:32 | 39.41867 | -105.03880 | 13404 ft | 299 kts | 90° |
| 2026-04-21 02:32 | 39.41876 | -105.01226 | 13272 ft | 290 kts | 90° |
| 2026-04-21 02:33 | 39.41884 | -104.98658 | 13153 ft | 281 kts | 90° |
| 2026-04-21 02:33 | 39.41891 | -104.96203 | 13021 ft | 267 kts | 90° |
| 2026-04-21 02:33 | 39.41916 | -104.93842 | 12864 ft | 259 kts | 86° |
| 2026-04-21 02:33 | 39.42097 | -104.91540 | 12639 ft | 255 kts | 83° |
| 2026-04-21 02:34 | 39.42316 | -104.89282 | 12404 ft | 252 kts | 84° |
| 2026-04-21 02:34 | 39.42526 | -104.87046 | 12170 ft | 250 kts | 84° |
| 2026-04-21 02:34 | 39.42734 | -104.84808 | 11934 ft | 250 kts | 84° |
| 2026-04-21 02:34 | 39.42938 | -104.82570 | 11698 ft | 250 kts | 84° |
| 2026-04-21 02:35 | 39.43135 | -104.80361 | 11467 ft | 251 kts | 84° |
| 2026-04-21 02:35 | 39.43336 | -104.78103 | 11216 ft | 252 kts | 84° |
| 2026-04-21 02:35 | 39.43577 | -104.75873 | 11064 ft | 247 kts | 76° |
| 2026-04-21 02:35 | 39.44132 | -104.73794 | 11009 ft | 242 kts | 68° |
| 2026-04-21 02:36 | 39.44986 | -104.71941 | 10984 ft | 244 kts | 43° |
| 2026-04-21 02:36 | 39.46435 | -104.70712 | 11012 ft | 255 kts | 28° |
| 2026-04-21 02:36 | 39.48037 | -104.69685 | 11005 ft | 257 kts | 22° |
| 2026-04-21 02:36 | 39.49755 | -104.69174 | 11009 ft | 256 kts | 5° |
| 2026-04-21 02:37 | 39.51498 | -104.69079 | 11009 ft | 256 kts | 1° |
| 2026-04-21 02:37 | 39.53283 | -104.69076 | 11015 ft | 256 kts | 0° |
| 2026-04-21 02:37 | 39.55062 | -104.69073 | 11012 ft | 256 kts | 0° |
| 2026-04-21 02:37 | 39.56848 | -104.69060 | 10912 ft | 258 kts | 0° |
| 2026-04-21 02:38 | 39.58669 | -104.69041 | 10582 ft | 262 kts | 0° |
| 2026-04-21 02:38 | 39.60488 | -104.69020 | 10251 ft | 262 kts | 0° |
| 2026-04-21 02:38 | 39.62290 | -104.68999 | 9951 ft | 262 kts | 0° |
| 2026-04-21 02:38 | 39.64116 | -104.68978 | 9600 ft | 262 kts | 1° |
| 2026-04-21 02:39 | 39.65912 | -104.68957 | 9233 ft | 253 kts | 1° |
| 2026-04-21 02:39 | 39.67631 | -104.68938 | 8916 ft | 241 kts | 1° |
| 2026-04-21 02:39 | 39.69286 | -104.68918 | 8635 ft | 237 kts | 1° |
| 2026-04-21 02:39 | 39.70906 | -104.68900 | 8340 ft | 228 kts | 1° |
| 2026-04-21 02:40 | 39.72461 | -104.68882 | 8022 ft | 219 kts | 2° |
| 2026-04-21 02:40 | 39.73953 | -104.68865 | 7737 ft | 210 kts | 2° |
| 2026-04-21 02:40 | 39.75403 | -104.68847 | 7487 ft | 209 kts | 2° |
| 2026-04-21 02:40 | 39.76859 | -104.68829 | 7258 ft | 206 kts | 2° |
| 2026-04-21 02:41 | 39.78276 | -104.68814 | 6984 ft | 200 kts | 2° |
| 2026-04-21 02:41 | 39.79644 | -104.68798 | 6733 ft | 191 kts | 2° |
| 2026-04-21 02:41 | 39.80902 | -104.68785 | 6512 ft | 169 kts | 3° |
| 2026-04-21 02:41 | 39.82075 | -104.68769 | 6316 ft | 170 kts | 2° |
| 2026-04-21 02:42 | 39.83243 | -104.68756 | 6066 ft | 165 kts | 3° |
| 2026-04-21 02:42 | 39.84356 | -104.68744 | 5839 ft | 159 kts | 3° |
| 2026-04-21 02:42 | 39.85457 | -104.68723 | 5650 ft | 156 kts | 2° |
| 2026-04-21 02:42 | 39.86551 | -104.68724 | 5405 ft | 153 kts | 2° |
| 2026-04-21 02:43 | 39.87532 | -104.68709 | 5364 ft | 124 kts | 360° |
| 2026-04-21 02:43 | 39.88241 | -104.68698 | 5363 ft | 80 kts | 1° |
| 2026-04-21 02:43 | 39.88685 | -104.68683 | 5360 ft | 43 kts | 4° |
| 2026-04-21 02:43 | 39.88884 | -104.68576 | 5361 ft | 20 kts | 32° |
| 2026-04-21 02:44 | 39.88910 | -104.68555 | 5364 ft | 0 kts | 33° |
| 2026-04-21 02:44 | 39.88923 | -104.68537 | 5363 ft | 10 kts | 52° |
| 2026-04-21 02:44 | 39.88927 | -104.68486 | 5362 ft | 5 kts | 129° |
| 2026-04-21 02:45 | 39.88860 | -104.68473 | 5363 ft | 11 kts | 181° |
| 2026-04-21 02:45 | 39.88737 | -104.68478 | 5362 ft | 21 kts | 181° |
| 2026-04-21 02:45 | 39.88594 | -104.68480 | 5362 ft | 21 kts | 180° |
| 2026-04-21 02:45 | 39.88448 | -104.68482 | 5361 ft | 23 kts | 180° |
| 2026-04-21 02:46 | 39.88291 | -104.68482 | 5363 ft | 23 kts | 180° |
| 2026-04-21 02:46 | 39.88133 | -104.68483 | 5365 ft | 23 kts | 180° |
| 2026-04-21 02:46 | 39.87976 | -104.68485 | 5367 ft | 23 kts | 181° |
| 2026-04-21 02:46 | 39.87817 | -104.68488 | 5368 ft | 25 kts | 180° |
| 2026-04-21 02:47 | 39.87602 | -104.68491 | 5366 ft | 31 kts | 180° |
| 2026-04-21 02:47 | 39.87391 | -104.68491 | 5363 ft | 30 kts | 180° |
| 2026-04-21 02:47 | 39.87203 | -104.68494 | 5363 ft | 24 kts | 179° |
| 2026-04-21 02:47 | 39.87028 | -104.68496 | 5364 ft | 29 kts | 180° |
| 2026-04-21 02:48 | 39.86824 | -104.68498 | 5365 ft | 30 kts | 180° |
| 2026-04-21 02:48 | 39.86654 | -104.68504 | 5368 ft | 20 kts | 181° |
| 2026-04-21 02:48 | 39.86515 | -104.68509 | 5369 ft | 20 kts | 181° |
| 2026-04-21 02:48 | 39.86377 | -104.68513 | 5370 ft | 20 kts | 178° |
| 2026-04-21 02:49 | 39.86238 | -104.68508 | 5368 ft | 20 kts | 179° |
| 2026-04-21 02:49 | 39.86099 | -104.68509 | 5367 ft | 20 kts | 180° |
| 2026-04-21 02:49 | 39.85961 | -104.68510 | 5367 ft | 20 kts | 180° |
| 2026-04-21 02:49 | 39.85823 | -104.68510 | 5367 ft | 20 kts | 179° |
| 2026-04-21 02:50 | 39.85697 | -104.68465 | 5372 ft | 20 kts | 126° |
| 2026-04-21 02:50 | 39.85685 | -104.68290 | 5377 ft | 20 kts | 90° |
| 2026-04-21 02:50 | 39.85680 | -104.68113 | 5380 ft | 20 kts | 92° |
| 2026-04-21 02:50 | 39.85674 | -104.67935 | 5376 ft | 20 kts | 92° |
| 2026-04-21 02:51 | 39.85669 | -104.67757 | 5384 ft | 20 kts | 91° |
| 2026-04-21 02:51 | 39.85668 | -104.67581 | 5384 ft | 20 kts | 90° |
| 2026-04-21 02:51 | 39.85665 | -104.67404 | 5386 ft | 20 kts | 90° |
| 2026-04-21 02:51 | 39.85716 | -104.67298 | 5381 ft | 12 kts | 26° |
| 2026-04-21 02:52 | 39.85785 | -104.67286 | 5381 ft | 5 kts | 1° |
| 2026-04-21 02:52 | 39.85804 | -104.67285 | 5382 ft | 0 kts | 1° |